LTK weather

Bassel Al-Assad International Airport
Latakia, Latakia Governorate, Syria

Public forecast

Using degrees Celsius for public forecast. Weather courtesy of forecast.io.

Current aviation weather report (METAR) for Bassel Al-Assad International Airport

Retrieved 2019/11/22 01:00 UTC (15 minutes ago):

OSLK 220100Z OSKL 220100Z

Aviation forecast (TAF) for Bassel Al-Assad International Airport

Forecast is more than 12 hours old.

Retrieved 2019/11/18 06:36 UTC (4 days ago):

TAF TAF OSLK 180500Z 1806/1906 08007KT CAVOK TEMPO 1818/1900 13006KT CAVOK